createdAt,value
2023-06-30T00:00:14.272Z,98130.22
2023-06-30T00:02:43.181Z,98125.84
2023-06-30T00:05:11.437Z,98125.31
2023-06-30T00:07:38.656Z,98116.59
2023-06-30T00:10:07.483Z,98116.41
2023-06-30T00:12:34.814Z,98110.97
2023-06-30T00:15:03.635Z,98117.19
2023-06-30T00:17:30.317Z,98125.56
2023-06-30T00:20:00.773Z,98120.22
2023-06-30T00:22:27.952Z,98121.88
2023-06-30T00:24:56.614Z,98114.19
2023-06-30T00:27:24.917Z,98105.63
2023-06-30T00:29:52.207Z,98096.41
2023-06-30T00:32:19.328Z,98098.72
2023-06-30T00:34:46.068Z,98097.94
2023-06-30T00:37:12.907Z,98105.22
2023-06-30T00:39:39.857Z,98102.91
2023-06-30T00:42:07.063Z,98101.88
2023-06-30T00:44:33.698Z,98094.84
2023-06-30T00:47:02.044Z,98097.81
2023-06-30T00:49:33.558Z,98099.50
2023-06-30T00:52:01.078Z,98099.56
2023-06-30T00:54:28.296Z,98103.06
2023-06-30T00:56:55.248Z,98102.38
2023-06-30T00:59:23.335Z,98103.34
2023-06-30T01:02:17.873Z,98097.22
2023-06-30T01:06:01.985Z,98092.75
2023-06-30T01:08:40.648Z,98086.41
2023-06-30T01:11:09.496Z,98090.09
2023-06-30T01:13:36.693Z,98095.44
2023-06-30T01:16:05.596Z,98091.13
2023-06-30T01:18:35.455Z,98081.25
2023-06-30T01:21:06.027Z,98081.53
2023-06-30T01:23:55.641Z,98076.88
2023-06-30T01:26:24.611Z,98084.19
2023-06-30T01:28:52.324Z,98080.16
2023-06-30T01:31:20.836Z,98081.81
2023-06-30T01:33:47.854Z,98076.13
2023-06-30T01:36:14.929Z,98072.44
2023-06-30T01:38:41.669Z,98068.75
2023-06-30T01:41:09.913Z,98068.31
2023-06-30T01:43:38.146Z,98064.19
2023-06-30T01:46:06.266Z,98060.84
2023-06-30T01:48:33.812Z,98068.03
2023-06-30T01:51:01.410Z,98070.56
2023-06-30T01:53:28.304Z,98058.94
2023-06-30T01:55:57.905Z,98058.22
2023-06-30T01:58:24.610Z,98061.19
2023-06-30T02:00:51.624Z,98058.72
2023-06-30T02:03:18.426Z,98055.25
2023-06-30T02:05:45.292Z,98058.56
2023-06-30T02:08:12.252Z,98051.53
2023-06-30T02:10:39.102Z,98059.69
2023-06-30T02:13:05.820Z,98047.84
2023-06-30T02:15:32.540Z,98051.56
2023-06-30T02:17:59.360Z,98060.59
2023-06-30T02:20:26.138Z,98058.91
2023-06-30T02:22:52.815Z,98063.53
2023-06-30T02:25:19.661Z,98074.78
2023-06-30T02:27:47.082Z,98083.50
2023-06-30T02:30:14.515Z,98084.25
2023-06-30T02:32:41.718Z,98091.06
2023-06-30T02:35:10.310Z,98081.78
2023-06-30T02:37:38.370Z,98093.84
2023-06-30T02:40:06.371Z,98089.25
2023-06-30T02:42:33.103Z,98088.78
2023-06-30T02:44:59.908Z,98100.09
2023-06-30T02:47:26.768Z,98092.59
2023-06-30T02:49:53.723Z,98088.88
2023-06-30T02:52:20.472Z,98090.72
2023-06-30T02:54:47.295Z,98085.41
2023-06-30T02:57:14.304Z,98083.25
2023-06-30T02:59:41.254Z,98088.66
2023-06-30T03:02:08.089Z,98085.50
2023-06-30T03:04:34.953Z,98091.13
2023-06-30T03:07:01.715Z,98086.66
2023-06-30T03:09:28.586Z,98079.59
